CheckWX is a tool to help pilots better visualize weather data.  It is not intended as a substitute for an official pre-flight weather briefing.

07:14:39 UTC

KACK METAR
Nantucket Memorial Airport
Nantucket, Massachusetts, USA
Current

22 mins ago

KACK 210653Z AUTO 25012KT 5SM BR BKN080 BKN095 13/12 A2971 RMK AO2 SLP059 T01280117
Observed
May-21 @ 06:53 UTC
Wind
  • 250° at 12 KTS
Visibility
5 SM
Flight Rules
MVFR
Conditions
Mist
Cloud Levels
  • Broken at 8,000' AGL
  • Broken at 9,500' AGL
Temperature
13°C / 55°F
Dewpoint
12°C / 54°F
Humidity
94%
Altimeter
29.71" Hg
Pressure
1006.12 hPa
Previous

1 hour ago

KACK 210553Z AUTO 25014KT 6SM BR SCT120 13/13 A2970 RMK AO2 SLP056 60011 T01330128 10150 20128 58004
Observed
May-21 @ 05:53 UTC
Wind
  • 250° at 14 KTS
Visibility
6 SM
Flight Rules
VFR
Conditions
Mist
Cloud Levels
  • Scattered at 12,000' AGL
Temperature
13°C / 55°F
Dewpoint
13°C / 55°F
Humidity
100%
Altimeter
29.7" Hg
Pressure
1005.72 hPa
Previous

2 hours ago

KACK 210453Z AUTO 24016KT 6SM BR FEW065 BKN095 14/13 A2970 RMK AO2 RAE02 SLP057 P0000 T01390128 401720122
Observed
May-21 @ 04:53 UTC
Wind
  • 240° at 16 KTS
Visibility
6 SM
Flight Rules
VFR
Conditions
Mist
Cloud Levels
  • Few at 6,500' AGL
  • Broken at 9,500' AGL
Temperature
14°C / 57°F
Dewpoint
13°C / 55°F
Humidity
94%
Altimeter
29.7" Hg
Pressure
1005.72 hPa
Current Rain
0.01"